Terminal Aerodrome Forecast
Issued by NWS

Current Version | Previous Version | Text Only | Print | Product List | Glossary On
Versions: 1 2 3 4 5 6 7 8 9 10 11 12
000
FTPQ31 PGUM 250521
TAFGUM
TAF

TAF
PTRO 250521Z 2506/2606 08011KT P6SM VCSH SCT016
     FM251100 07007KT P6SM VCSH SCT015 BKN120=

USA.gov is the U.S. government's official web portal to all federal, state and local government web resources and services.